Time;durP1;ratioP1;P1;durP2;ratioP2;P2;SDS_P1;SDS_P2;PMS_P1;PMS_P2;Temp;Humidity;BMP_temperature;BMP_pressure;BME280_temperature;BME280_humidity;BME280_pressure;Samples;Min_cycle;Max_cycle;Signal;HPM_P1;HPM_P2
2023/03/19 00:01:52;;;;;;;7.03;5.47;;;14.50;53.70;;;;;;5017686;28;20445;-84
2023/03/19 00:04:19;;;;;;;7.07;5.50;;;14.60;53.20;;;;;;5061492;28;20980;-84
2023/03/19 00:06:46;;;;;;;11.03;7.67;;;14.70;53.00;;;;;;5025568;28;20441;-85
2023/03/19 00:09:13;;;;;;;9.70;6.17;;;14.80;52.60;;;;;;5034559;28;20476;-87
2023/03/19 00:11:40;;;;;;;11.73;6.67;;;14.90;52.40;;;;;;5040074;28;21377;-84
2023/03/19 00:14:07;;;;;;;8.37;5.83;;;15.00;52.30;;;;;;5041892;28;20440;-86
2023/03/19 00:16:35;;;;;;;8.60;6.20;;;15.00;52.20;;;;;;5054853;28;20521;-85
2023/03/19 00:19:02;;;;;;;7.03;5.13;;;14.90;52.10;;;;;;5042897;28;20456;-86
2023/03/19 00:21:30;;;;;;;7.33;6.40;;;15.00;52.00;;;;;;5048033;28;21035;-86
2023/03/19 00:23:59;;;;;;;10.40;6.57;;;15.00;52.10;;;;;;5053793;28;20452;-85
2023/03/19 00:26:27;;;;;;;9.50;7.43;;;14.90;52.00;;;;;;5054439;28;20456;-85
2023/03/19 00:28:54;;;;;;;10.20;7.10;;;14.90;51.80;;;;;;5062850;28;20500;-84
2023/03/19 00:31:21;;;;;;;11.27;7.00;;;14.80;51.90;;;;;;5050352;28;20447;-86
2023/03/19 00:33:49;;;;;;;7.27;6.50;;;14.80;51.60;;;;;;5042092;28;20464;-85
2023/03/19 00:36:17;;;;;;;11.67;6.23;;;14.80;52.10;;;;;;5035541;28;20573;-85
2023/03/19 00:38:44;;;;;;;8.57;6.27;;;14.80;52.90;;;;;;5056811;28;20520;-85
2023/03/19 00:41:12;;;;;;;9.27;5.90;;;14.80;52.20;;;;;;5050645;28;20538;-85
2023/03/19 00:43:39;;;;;;;7.87;5.90;;;14.50;53.50;;;;;;5042615;28;20964;-86
2023/03/19 00:46:06;;;;;;;14.67;8.20;;;13.80;55.00;;;;;;5049385;28;21119;-85
2023/03/19 00:48:33;;;;;;;16.00;7.10;;;13.70;55.50;;;;;;5048591;28;20444;-85
2023/03/19 00:51:04;;;;;;;11.30;6.20;;;13.80;55.40;;;;;;5042449;28;20470;-84
2023/03/19 00:53:32;;;;;;;6.80;4.83;;;14.00;55.00;;;;;;5036062;28;20452;-85
2023/03/19 00:55:59;;;;;;;11.60;6.00;;;14.00;54.90;;;;;;5036160;28;20488;-85
2023/03/19 00:58:26;;;;;;;9.97;6.97;;;14.10;54.60;;;;;;5016441;28;20983;-84
2023/03/19 01:00:53;;;;;;;17.13;9.30;;;14.20;54.30;;;;;;5022468;28;20459;-87
2023/03/19 01:03:21;;;;;;;12.10;8.10;;;14.20;54.30;;;;;;5063963;28;20551;-84
2023/03/19 01:05:48;;;;;;;10.37;7.67;;;14.10;54.40;;;;;;5052523;28;20471;-85
2023/03/19 01:08:18;;;;;;;14.77;9.10;;;13.90;55.00;;;;;;5037021;28;20472;-85
2023/03/19 01:10:45;;;;;;;8.73;7.07;;;14.00;55.30;;;;;;5035933;28;20448;-85
2023/03/19 01:13:12;;;;;;;6.77;5.83;;;14.10;54.30;;;;;;5025078;28;20460;-85
2023/03/19 01:15:41;;;;;;;13.60;7.83;;;14.00;54.70;;;;;;5023357;28;20467;-87
2023/03/19 01:18:09;;;;;;;12.10;7.70;;;14.00;54.80;;;;;;5035676;28;21528;-84
2023/03/19 01:20:38;;;;;;;11.43;7.37;;;13.80;55.10;;;;;;5024962;28;20490;-86
2023/03/19 01:23:06;;;;;;;10.43;6.50;;;13.70;55.10;;;;;;5028677;28;20506;-85
2023/03/19 01:25:35;;;;;;;9.43;7.37;;;13.90;54.90;;;;;;5038538;28;20471;-85
2023/03/19 01:28:04;;;;;;;6.80;5.20;;;14.00;54.60;;;;;;5029223;28;20436;-86
2023/03/19 01:30:31;;;;;;;8.57;6.40;;;14.10;54.30;;;;;;5034201;28;20472;-84
2023/03/19 01:33:13;;;;;;;14.80;6.50;;;14.10;54.30;;;;;;5042233;28;20532;-86
2023/03/19 01:35:53;;;;;;;11.03;7.50;;;14.10;54.00;;;;;;5037972;28;20562;-86
2023/03/19 01:38:24;;;;;;;11.40;7.27;;;14.20;54.10;;;;;;5034855;28;20794;-86
2023/03/19 01:40:53;;;;;;;9.43;6.77;;;13.90;54.70;;;;;;5027351;28;20462;-85
2023/03/19 01:43:23;;;;;;;11.27;7.10;;;13.50;56.00;;;;;;5039565;28;20447;-85
2023/03/19 01:45:56;;;;;;;10.83;6.83;;;13.60;55.50;;;;;;5052708;28;20460;-85
2023/03/19 01:48:43;;;;;;;9.77;6.27;;;13.70;55.60;;;;;;5025130;28;20455;-86
2023/03/19 01:51:16;;;;;;;8.27;6.70;;;13.60;56.70;;;;;;5040144;28;20448;-85
2023/03/19 01:54:14;;;;;;;10.40;6.87;;;13.60;55.50;;;;;;5004583;28;20527;-86
2023/03/19 01:56:58;;;;;;;10.40;5.90;;;13.60;56.00;;;;;;5043243;28;21113;-85
2023/03/19 01:59:36;;;;;;;10.57;6.30;;;13.60;56.50;;;;;;5059184;28;20960;-86
2023/03/19 02:02:40;;;;;;;12.00;7.47;;;13.70;56.40;;;;;;4967289;28;20449;-86
2023/03/19 02:05:24;;;;;;;10.30;6.53;;;13.80;56.20;;;;;;5045075;28;21132;-83
2023/03/19 02:07:54;;;;;;;8.90;6.20;;;13.90;55.70;;;;;;5036973;28;20462;-85
2023/03/19 02:10:22;;;;;;;9.03;7.30;;;14.00;55.60;;;;;;5034727;28;20452;-84
2023/03/19 02:12:51;;;;;;;8.53;6.60;;;14.10;55.50;;;;;;5037452;28;20461;-85
2023/03/19 02:15:19;;;;;;;12.70;7.10;;;14.10;55.20;;;;;;5052777;28;20524;-85
2023/03/19 02:17:47;;;;;;;9.20;7.13;;;14.00;55.30;;;;;;5056566;28;20477;-85
2023/03/19 02:20:19;;;;;;;9.37;7.33;;;14.00;55.90;;;;;;5043265;28;21023;-86
2023/03/19 02:22:54;;;;;;;11.00;7.30;;;13.80;56.20;;;;;;5034895;28;20464;-86
2023/03/19 02:25:28;;;;;;;7.90;7.17;;;13.80;56.30;;;;;;5037142;28;21093;-85
2023/03/19 02:27:57;;;;;;;10.93;7.40;;;13.60;56.90;;;;;;5051589;28;20454;-85
2023/03/19 02:30:27;;;;;;;7.63;6.37;;;13.50;57.40;;;;;;5024365;28;20447;-85
2023/03/19 02:32:55;;;;;;;9.27;7.43;;;13.50;57.30;;;;;;5018811;28;20451;-85
2023/03/19 02:35:22;;;;;;;9.27;6.40;;;13.50;57.50;;;;;;5040410;28;20522;-85
2023/03/19 02:37:49;;;;;;;7.97;6.50;;;13.50;57.50;;;;;;5026195;28;20464;-85
2023/03/19 02:40:22;;;;;;;8.70;6.03;;;13.40;57.80;;;;;;5052854;28;20856;-85
2023/03/19 02:42:49;;;;;;;14.17;6.90;;;13.60;57.50;;;;;;5058654;28;20452;-87
2023/03/19 02:45:18;;;;;;;11.00;6.73;;;13.40;57.40;;;;;;5054200;28;20977;-86
2023/03/19 02:47:45;;;;;;;8.40;6.53;;;13.10;58.10;;;;;;5018525;28;20514;-86
2023/03/19 02:50:12;;;;;;;9.63;6.60;;;13.40;58.10;;;;;;5041504;28;20904;-85
2023/03/19 02:52:40;;;;;;;8.50;7.03;;;13.60;57.10;;;;;;5021285;28;20456;-85
2023/03/19 02:55:08;;;;;;;8.17;6.83;;;13.60;57.10;;;;;;5041479;28;20463;-85
2023/03/19 02:57:35;;;;;;;8.50;7.50;;;13.60;57.20;;;;;;5042503;28;21006;-84
2023/03/19 03:00:04;;;;;;;9.20;6.80;;;13.70;57.00;;;;;;5052705;28;20459;-85
2023/03/19 03:02:32;;;;;;;12.73;6.80;;;13.80;56.50;;;;;;5059151;28;20484;-86
2023/03/19 03:04:59;;;;;;;7.33;6.63;;;13.80;56.60;;;;;;5024884;28;20491;-85
2023/03/19 03:07:26;;;;;;;10.93;6.67;;;13.70;56.90;;;;;;5026544;28;20451;-84
2023/03/19 03:09:53;;;;;;;8.83;6.43;;;13.80;56.90;;;;;;5067127;28;20517;-86
2023/03/19 03:12:21;;;;;;;8.20;6.20;;;13.90;56.90;;;;;;5058632;28;20857;-85
2023/03/19 03:14:48;;;;;;;7.53;6.67;;;13.80;57.30;;;;;;5020557;28;20575;-85
2023/03/19 03:17:15;;;;;;;12.83;7.07;;;13.70;56.70;;;;;;5052064;28;20488;-86
2023/03/19 03:19:44;;;;;;;15.10;7.33;;;13.60;57.40;;;;;;5025084;28;20453;-85
2023/03/19 03:22:11;;;;;;;10.67;7.20;;;13.40;57.60;;;;;;5040033;28;20466;-85
2023/03/19 03:24:39;;;;;;;11.10;6.30;;;13.50;57.50;;;;;;5045375;28;20544;-85
2023/03/19 03:27:07;;;;;;;8.30;6.60;;;13.60;57.00;;;;;;5045927;28;20483;-85
2023/03/19 03:29:34;;;;;;;11.40;6.90;;;13.70;56.50;;;;;;5037714;28;20454;-85
2023/03/19 03:32:01;;;;;;;9.93;7.10;;;13.70;56.50;;;;;;5045598;28;20463;-84
2023/03/19 03:34:28;;;;;;;9.47;6.57;;;13.70;56.10;;;;;;5052185;28;20482;-85
2023/03/19 03:36:58;;;;;;;9.43;6.10;;;13.60;55.80;;;;;;5038679;28;20476;-85
2023/03/19 03:39:25;;;;;;;9.97;6.50;;;13.60;56.10;;;;;;5054527;28;20432;-85
2023/03/19 03:41:52;;;;;;;9.97;6.90;;;13.70;56.40;;;;;;5071414;28;21025;-85
2023/03/19 03:44:20;;;;;;;7.10;6.37;;;13.30;57.40;;;;;;5045460;28;20476;-85
2023/03/19 03:46:47;;;;;;;10.63;6.90;;;13.20;57.90;;;;;;5037748;28;20522;-85
2023/03/19 03:49:14;;;;;;;7.70;6.57;;;13.30;57.60;;;;;;5046344;28;20461;-85
2023/03/19 03:51:41;;;;;;;10.60;7.97;;;13.50;57.40;;;;;;5058257;28;21309;-85
2023/03/19 03:54:10;;;;;;;8.97;6.93;;;13.50;56.80;;;;;;5053319;28;20444;-84
2023/03/19 03:56:37;;;;;;;13.80;7.03;;;13.50;57.10;;;;;;5069349;28;20444;-84
2023/03/19 03:59:04;;;;;;;8.50;6.13;;;13.30;57.40;;;;;;5054292;28;20444;-84
2023/03/19 04:01:31;;;;;;;10.47;6.67;;;13.40;57.70;;;;;;5044972;28;20455;-86
2023/03/19 04:03:58;;;;;;;13.87;7.07;;;13.30;57.70;;;;;;5035714;28;20439;-86
2023/03/19 04:06:27;;;;;;;8.90;7.00;;;13.40;56.90;;;;;;5028231;28;20493;-86
2023/03/19 04:09:21;;;;;;;8.90;6.77;;;13.30;57.20;;;;;;5015829;28;20441;-85
2023/03/19 04:11:48;;;;;;;12.80;8.67;;;13.30;57.50;;;;;;5055344;28;20441;-84
2023/03/19 04:14:16;;;;;;;9.03;7.33;;;12.80;58.80;;;;;;5024547;28;21180;-85
2023/03/19 04:16:43;;;;;;;9.63;6.93;;;12.90;59.20;;;;;;5031313;28;20466;-83
2023/03/19 04:19:11;;;;;;;10.03;7.07;;;12.90;59.30;;;;;;5042653;28;21039;-87
2023/03/19 04:21:38;;;;;;;8.07;7.27;;;13.00;59.10;;;;;;5027019;28;20456;-86
2023/03/19 04:24:05;;;;;;;10.10;6.30;;;13.30;58.60;;;;;;5062199;28;20451;-84
2023/03/19 04:26:35;;;;;;;11.03;7.40;;;13.30;58.30;;;;;;5035316;28;20451;-86
2023/03/19 04:29:02;;;;;;;8.90;6.57;;;13.40;58.20;;;;;;5034905;28;20437;-86
2023/03/19 04:31:30;;;;;;;11.17;6.57;;;13.50;57.90;;;;;;5043365;28;20456;-85
2023/03/19 04:33:57;;;;;;;13.10;7.80;;;13.60;57.40;;;;;;5044509;28;21413;-87
2023/03/19 04:36:24;;;;;;;9.00;7.43;;;13.50;56.80;;;;;;5054387;28;20441;-86
2023/03/19 04:38:51;;;;;;;9.60;7.07;;;13.40;57.30;;;;;;5031750;28;20487;-86
2023/03/19 04:41:19;;;;;;;7.47;5.80;;;13.10;58.30;;;;;;5029074;28;20484;-87
2023/03/19 04:44:01;;;;;;;10.43;6.97;;;13.10;58.70;;;;;;5025064;28;21230;-85
2023/03/19 04:46:29;;;;;;;11.73;6.87;;;13.30;58.30;;;;;;5037892;28;20464;-86
2023/03/19 04:48:56;;;;;;;8.93;6.20;;;13.20;58.60;;;;;;5033986;28;20957;-85
2023/03/19 04:51:23;;;;;;;8.03;7.23;;;13.40;58.50;;;;;;5036397;28;21023;-85
2023/03/19 04:53:51;;;;;;;9.17;7.50;;;13.50;58.30;;;;;;5027296;28;20496;-86
2023/03/19 04:56:18;;;;;;;9.90;7.70;;;13.40;58.50;;;;;;5053012;28;21094;-86
2023/03/19 04:58:46;;;;;;;8.27;6.80;;;13.50;58.40;;;;;;5032028;28;20510;-84
2023/03/19 05:01:14;;;;;;;7.43;6.63;;;13.50;58.20;;;;;;5044790;28;21253;-85
2023/03/19 05:04:03;;;;;;;8.47;6.77;;;13.60;57.90;;;;;;5027342;28;20524;-86
2023/03/19 05:06:33;;;;;;;10.80;7.00;;;13.70;57.10;;;;;;5047792;28;20533;-86
2023/03/19 05:09:00;;;;;;;9.50;7.20;;;13.70;57.20;;;;;;5037442;28;20460;-85
2023/03/19 05:11:27;;;;;;;19.40;7.17;;;13.70;57.60;;;;;;5060701;28;20443;-86
2023/03/19 05:14:06;;;;;;;9.73;6.00;;;13.50;57.90;;;;;;5053177;28;20541;-86
2023/03/19 05:16:46;;;;;;;10.07;7.17;;;13.40;58.40;;;;;;5042575;28;21046;-86
2023/03/19 05:19:13;;;;;;;10.70;7.90;;;13.50;58.20;;;;;;5045203;28;20470;-86
2023/03/19 05:21:41;;;;;;;8.37;6.67;;;13.60;58.00;;;;;;5026926;28;20976;-85
2023/03/19 05:24:09;;;;;;;10.67;6.27;;;13.40;58.30;;;;;;5043174;28;20483;-85
2023/03/19 05:26:37;;;;;;;10.67;7.80;;;13.40;58.70;;;;;;5038148;28;20457;-86
2023/03/19 05:29:19;;;;;;;7.93;6.60;;;13.40;58.60;;;;;;5052091;28;20447;-84
2023/03/19 05:32:14;;;;;;;8.03;6.77;;;13.50;58.50;;;;;;5025609;28;21019;-85
2023/03/19 05:34:42;;;;;;;11.23;7.20;;;13.60;58.00;;;;;;5034570;28;20464;-84
2023/03/19 05:37:09;;;;;;;10.45;6.40;;;13.70;57.80;;;;;;5026105;28;20445;-87
2023/03/19 05:39:36;;;;;;;10.20;6.80;;;13.60;58.20;;;;;;5036253;28;20465;-85
2023/03/19 05:42:07;;;;;;;10.20;7.40;;;13.50;58.20;;;;;;5070277;28;22822;-86
2023/03/19 05:44:34;;;;;;;9.23;6.50;;;13.60;57.90;;;;;;5039438;28;20472;-86
2023/03/19 05:47:23;;;;;;;9.87;6.77;;;13.50;57.90;;;;;;5037492;28;20453;-85
2023/03/19 05:49:54;;;;;;;9.10;6.57;;;13.20;59.20;;;;;;5044027;28;20448;-84
2023/03/19 05:52:21;;;;;;;9.03;5.90;;;13.30;59.00;;;;;;5043689;28;20451;-84
2023/03/19 05:54:49;;;;;;;9.73;6.77;;;13.40;59.00;;;;;;5037249;28;20468;-84
2023/03/19 05:57:45;;;;;;;14.57;7.40;;;13.20;59.10;;;;;;5038032;28;21347;-86
2023/03/19 06:00:19;;;;;;;9.53;7.20;;;13.20;59.20;;;;;;5037509;28;20448;-85
2023/03/19 06:02:50;;;;;;;9.10;6.70;;;13.00;59.50;;;;;;5037931;28;20527;-85
2023/03/19 06:05:35;;;;;;;13.80;7.47;;;12.80;60.30;;;;;;5037872;28;20462;-86
2023/03/19 06:08:19;;;;;;;14.27;7.40;;;13.00;60.20;;;;;;5027357;28;20868;-87
2023/03/19 06:11:05;;;;;;;10.67;7.80;;;13.20;59.80;;;;;;5045250;28;20447;-85
2023/03/19 06:13:34;;;;;;;8.97;7.30;;;13.40;59.20;;;;;;5049966;28;20836;-84
2023/03/19 06:16:14;;;;;;;11.60;7.83;;;13.50;58.40;;;;;;5029502;28;20492;-85
2023/03/19 06:18:48;;;;;;;14.07;8.50;;;13.30;58.90;;;;;;5034950;28;20954;-85
2023/03/19 06:21:17;;;;;;;9.73;7.33;;;13.00;59.80;;;;;;5022235;28;20504;-86
2023/03/19 06:23:44;;;;;;;11.33;8.17;;;12.90;60.10;;;;;;5043684;28;20456;-85
2023/03/19 06:26:14;;;;;;;13.30;8.20;;;13.10;60.40;;;;;;5023737;28;20547;-86
2023/03/19 06:28:53;;;;;;;11.23;7.20;;;13.30;59.60;;;;;;5017113;28;20457;-85
2023/03/19 06:31:20;;;;;;;9.60;8.27;;;13.40;59.20;;;;;;5021191;28;20450;-87
2023/03/19 06:33:55;;;;;;;16.30;13.87;;;13.60;59.30;;;;;;5047184;28;20451;-86
2023/03/19 06:36:24;;;;;;;20.93;12.67;;;13.60;59.70;;;;;;5024903;28;20480;-86
2023/03/19 06:38:52;;;;;;;20.63;12.50;;;13.70;59.40;;;;;;5023225;28;20467;-86
2023/03/19 06:41:19;;;;;;;11.50;9.20;;;13.80;59.00;;;;;;5041917;28;20525;-85
2023/03/19 06:43:48;;;;;;;12.27;8.80;;;13.30;59.80;;;;;;5050598;28;21017;-87
2023/03/19 06:46:15;;;;;;;12.30;8.40;;;13.20;60.60;;;;;;5066849;28;20472;-86
2023/03/19 06:48:42;;;;;;;11.00;7.97;;;13.10;60.70;;;;;;5032716;28;20448;-86
2023/03/19 06:51:10;;;;;;;13.00;9.90;;;13.00;61.60;;;;;;5051074;28;21153;-86
2023/03/19 06:53:37;;;;;;;81.40;34.53;;;13.20;61.60;;;;;;5047177;28;20984;-85
2023/03/19 06:56:05;;;;;;;38.87;20.30;;;13.30;61.30;;;;;;5052565;28;20460;-87
2023/03/19 06:58:32;;;;;;;34.30;18.50;;;13.40;61.30;;;;;;5038963;28;20468;-85
2023/03/19 07:01:00;;;;;;;28.17;16.60;;;13.60;60.90;;;;;;5041051;28;20475;-86
2023/03/19 07:03:27;;;;;;;21.40;13.57;;;13.70;60.30;;;;;;5062820;28;20462;-86
2023/03/19 07:05:54;;;;;;;28.07;14.57;;;13.70;60.50;;;;;;5029474;28;21000;-84
2023/03/19 07:08:28;;;;;;;18.13;11.77;;;13.70;60.50;;;;;;5039026;28;20450;-84
2023/03/19 07:10:56;;;;;;;26.03;14.90;;;13.70;60.50;;;;;;5046744;28;20501;-85
2023/03/19 07:13:23;;;;;;;43.20;25.70;;;13.70;60.60;;;;;;5036628;28;20988;-86
2023/03/19 07:15:51;;;;;;;28.40;17.20;;;13.80;60.00;;;;;;5022899;28;20467;-87
2023/03/19 07:18:18;;;;;;;14.93;10.87;;;13.80;60.40;;;;;;5039192;28;20539;-88
2023/03/19 07:20:46;;;;;;;13.93;8.43;;;13.70;60.60;;;;;;5040236;28;20450;-85
2023/03/19 07:23:14;;;;;;;11.73;9.30;;;13.70;60.30;;;;;;5068478;28;20565;-87
2023/03/19 07:25:42;;;;;;;21.93;18.40;;;13.80;60.20;;;;;;5027470;28;20546;-86
2023/03/19 07:28:09;;;;;;;24.47;17.27;;;13.60;60.80;;;;;;5045618;28;20444;-87
2023/03/19 07:30:37;;;;;;;18.80;13.50;;;13.40;61.20;;;;;;5051565;28;20486;-85
2023/03/19 07:33:06;;;;;;;18.83;12.00;;;13.60;61.40;;;;;;5054371;28;20493;-87
2023/03/19 07:35:33;;;;;;;15.63;10.60;;;13.80;60.90;;;;;;5058134;28;20480;-86
2023/03/19 07:38:01;;;;;;;11.40;10.07;;;13.90;60.20;;;;;;5058640;28;20451;-87
2023/03/19 07:40:28;;;;;;;15.27;10.50;;;14.10;59.80;;;;;;5066973;28;20472;-86
2023/03/19 07:42:56;;;;;;;18.77;11.00;;;14.20;59.40;;;;;;5021579;28;20477;-86
2023/03/19 07:45:23;;;;;;;43.70;23.80;;;14.20;59.20;;;;;;5036495;28;20475;-86
2023/03/19 07:47:51;;;;;;;36.90;18.00;;;14.00;59.80;;;;;;5053341;28;20913;-87
2023/03/19 07:50:18;;;;;;;77.23;38.20;;;14.00;60.10;;;;;;5027412;28;20498;-87
2023/03/19 07:52:45;;;;;;;36.93;19.40;;;14.10;60.00;;;;;;5054857;28;20456;-85
2023/03/19 07:55:12;;;;;;;26.43;13.90;;;14.20;59.60;;;;;;5035609;28;20475;-88
2023/03/19 07:57:39;;;;;;;21.97;13.50;;;14.30;59.90;;;;;;5044132;28;20443;-86
2023/03/19 08:00:11;;;;;;;18.67;11.77;;;14.50;59.10;;;;;;5051658;28;21004;-85
2023/03/19 08:02:43;;;;;;;19.40;12.30;;;14.50;58.80;;;;;;5066872;28;21107;-86
2023/03/19 08:05:11;;;;;;;23.70;15.07;;;14.40;59.50;;;;;;5056137;28;20472;-87
2023/03/19 08:07:38;;;;;;;25.73;16.00;;;14.40;59.50;;;;;;5037922;28;20453;-86
2023/03/19 08:10:06;;;;;;;22.97;14.80;;;14.60;59.60;;;;;;5054052;28;20682;-86
2023/03/19 08:12:38;;;;;;;23.47;14.93;;;14.70;59.40;;;;;;5054314;28;20503;-87
2023/03/19 08:15:08;;;;;;;23.23;14.30;;;14.90;59.00;;;;;;5039386;28;20553;-86
2023/03/19 08:17:37;;;;;;;39.83;18.33;;;14.80;59.00;;;;;;5054919;28;20535;-86
2023/03/19 08:20:07;;;;;;;35.50;20.70;;;14.60;59.40;;;;;;5039219;28;20460;-86
2023/03/19 08:22:35;;;;;;;35.43;27.20;;;14.60;59.60;;;;;;5055403;28;20451;-87
2023/03/19 08:25:02;;;;;;;35.80;23.33;;;14.80;59.30;;;;;;5021051;28;20521;-86
2023/03/19 08:27:30;;;;;;;37.47;17.43;;;14.80;59.40;;;;;;5037583;28;20456;-86
2023/03/19 08:29:58;;;;;;;25.60;13.57;;;14.60;59.80;;;;;;5038679;28;20451;-86
2023/03/19 08:32:26;;;;;;;16.73;10.27;;;14.70;59.70;;;;;;5037032;28;20971;-86
2023/03/19 08:34:53;;;;;;;14.03;9.80;;;14.70;59.60;;;;;;5034733;28;20469;-86
2023/03/19 08:37:20;;;;;;;12.87;10.10;;;14.70;59.20;;;;;;5044898;28;20457;-86
2023/03/19 08:39:49;;;;;;;15.13;10.03;;;14.50;59.70;;;;;;5027006;28;20461;-85
2023/03/19 08:42:16;;;;;;;12.03;9.57;;;14.60;59.70;;;;;;5059123;28;20863;-87
2023/03/19 08:44:43;;;;;;;12.70;9.60;;;14.60;59.80;;;;;;5021836;28;20469;-86
2023/03/19 08:47:11;;;;;;;16.73;9.60;;;14.60;59.90;;;;;;5026400;28;20447;-86
2023/03/19 08:49:39;;;;;;;13.40;9.33;;;14.60;60.20;;;;;;5039348;28;20440;-86
2023/03/19 08:52:07;;;;;;;16.37;10.57;;;14.80;60.20;;;;;;5027006;28;20457;-88
2023/03/19 08:54:34;;;;;;;21.63;11.53;;;15.00;59.90;;;;;;5041549;28;20496;-86
2023/03/19 08:57:01;;;;;;;18.93;13.27;;;15.10;59.70;;;;;;5025742;28;20451;-86
2023/03/19 08:59:28;;;;;;;14.77;9.63;;;15.20;59.90;;;;;;5041960;28;21004;-86
2023/03/19 09:01:55;;;;;;;9.37;6.70;;;15.20;60.40;;;;;;5037355;28;20962;-89
2023/03/19 09:04:22;;;;;;;6.10;4.17;;;15.30;60.60;;;;;;5038628;28;20477;-87
2023/03/19 09:06:51;;;;;;;5.13;4.53;;;15.40;59.70;;;;;;5043720;28;22223;-86
2023/03/19 09:09:18;;;;;;;5.70;3.90;;;15.60;59.30;;;;;;5025900;28;20441;-86
2023/03/19 09:11:46;;;;;;;4.90;3.33;;;15.70;58.80;;;;;;5039888;28;20833;-86
2023/03/19 09:14:15;;;;;;;4.67;3.30;;;16.10;58.60;;;;;;5026792;28;20468;-88
2023/03/19 09:16:43;;;;;;;4.40;3.57;;;16.40;58.20;;;;;;5037627;28;20455;-87
2023/03/19 09:19:10;;;;;;;5.60;3.13;;;16.60;56.80;;;;;;5045123;28;20551;-87
2023/03/19 09:21:37;;;;;;;8.50;3.13;;;16.60;56.30;;;;;;5054003;28;21146;-87
2023/03/19 09:24:06;;;;;;;3.30;3.00;;;16.70;56.90;;;;;;5043357;28;20452;-87
2023/03/19 09:26:33;;;;;;;3.60;3.30;;;16.80;55.90;;;;;;5042853;28;20441;-85
2023/03/19 09:29:02;;;;;;;4.37;2.93;;;16.70;55.90;;;;;;5066139;28;21219;-86
2023/03/19 09:31:29;;;;;;;4.03;3.20;;;16.80;56.10;;;;;;5042450;28;20475;-88
2023/03/19 09:33:56;;;;;;;4.10;2.83;;;16.70;56.40;;;;;;5052314;28;20459;-86
2023/03/19 09:36:24;;;;;;;3.90;2.73;;;16.70;56.10;;;;;;5054998;28;20476;-87
2023/03/19 09:38:51;;;;;;;3.47;2.80;;;16.50;55.60;;;;;;5052424;28;20479;-86
2023/03/19 09:41:27;;;;;;;6.00;3.27;;;16.50;56.90;;;;;;5021603;28;20453;-86
2023/03/19 09:44:02;;;;;;;5.23;2.90;;;16.40;56.80;;;;;;5032724;28;20444;-87
2023/03/19 09:46:36;;;;;;;3.13;2.70;;;16.70;56.80;;;;;;5035698;28;20428;-86
2023/03/19 09:49:11;;;;;;;5.10;3.13;;;17.00;56.50;;;;;;5040214;28;20469;-86
2023/03/19 09:51:43;;;;;;;3.80;3.13;;;17.10;55.60;;;;;;5040236;28;20875;-86
2023/03/19 09:54:25;;;;;;;3.83;3.40;;;17.10;55.00;;;;;;5042203;28;20452;-85
2023/03/19 09:56:53;;;;;;;4.67;2.90;;;17.10;55.50;;;;;;5030436;28;20811;-87
2023/03/19 09:59:22;;;;;;;3.33;3.03;;;17.30;55.90;;;;;;5035096;28;20472;-87
2023/03/19 10:01:57;;;;;;;3.40;3.10;;;17.70;55.30;;;;;;5036239;28;20950;-86
2023/03/19 10:04:41;;;;;;;5.77;3.17;;;17.70;54.40;;;;;;5057650;28;20542;-85
2023/03/19 10:07:35;;;;;;;3.83;3.37;;;17.40;54.80;;;;;;5041844;28;20452;-85
2023/03/19 10:10:24;;;;;;;3.73;2.40;;;17.00;54.80;;;;;;5042174;28;21035;-84
2023/03/19 10:13:00;;;;;;;5.40;3.37;;;17.20;54.70;;;;;;5024553;28;21952;-86
2023/03/19 10:15:29;;;;;;;3.23;2.80;;;17.30;54.10;;;;;;5052626;28;20475;-85
2023/03/19 10:18:00;;;;;;;2.87;2.60;;;17.40;54.10;;;;;;5051669;28;20444;-84
2023/03/19 10:20:36;;;;;;;4.20;3.23;;;17.50;54.60;;;;;;5039539;28;20559;-84
2023/03/19 10:23:32;;;;;;;3.40;2.80;;;17.80;54.40;;;;;;5041978;28;20445;-85
2023/03/19 10:26:02;;;;;;;2.70;2.50;;;18.20;54.40;;;;;;5044497;28;21005;-86
2023/03/19 10:28:30;;;;;;;4.03;2.97;;;18.80;53.70;;;;;;5056705;28;20443;-85
2023/03/19 10:31:09;;;;;;;4.27;3.20;;;19.00;50.40;;;;;;5057570;28;20548;-84
2023/03/19 10:33:44;;;;;;;6.43;3.50;;;19.20;50.40;;;;;;5056810;28;20462;-85
2023/03/19 10:36:13;;;;;;;3.83;3.30;;;18.90;50.00;;;;;;5031806;28;20551;-86
2023/03/19 10:38:43;;;;;;;3.23;2.87;;;18.70;50.90;;;;;;5056462;28;20454;-86
2023/03/19 10:41:31;;;;;;;2.90;2.47;;;18.30;51.00;;;;;;5045067;28;20471;-84
2023/03/19 10:44:03;;;;;;;3.00;2.80;;;18.40;52.10;;;;;;5072353;28;20538;-85
2023/03/19 10:46:37;;;;;;;3.07;2.57;;;18.70;50.80;;;;;;5074325;28;20440;-86
2023/03/19 10:49:04;;;;;;;3.60;2.77;;;18.70;50.60;;;;;;5044933;28;20441;-84
2023/03/19 10:51:32;;;;;;;5.43;2.90;;;18.70;48.70;;;;;;5024263;28;20450;-85
2023/03/19 10:54:00;;;;;;;5.37;3.27;;;18.50;49.70;;;;;;5046808;28;20447;-84
2023/03/19 10:56:29;;;;;;;5.07;2.80;;;18.80;50.30;;;;;;5042528;28;20484;-86
2023/03/19 10:59:04;;;;;;;4.30;2.97;;;19.00;49.80;;;;;;5031203;28;20449;-85
2023/03/19 11:01:33;;;;;;;3.47;2.93;;;18.70;49.80;;;;;;5073569;28;20448;-84
2023/03/19 11:04:02;;;;;;;3.67;3.37;;;18.70;51.50;;;;;;5060886;28;21028;-85
2023/03/19 11:06:33;;;;;;;4.97;2.80;;;19.00;49.80;;;;;;5029069;28;20456;-86
2023/03/19 11:09:01;;;;;;;9.10;2.20;;;19.40;49.10;;;;;;5061565;28;20447;-85
2023/03/19 11:11:36;;;;;;;2.83;2.40;;;19.60;46.60;;;;;;5072112;28;20444;-85
2023/03/19 11:14:10;;;;;;;2.87;2.67;;;19.60;47.80;;;;;;5026960;28;20443;-85
2023/03/19 11:16:52;;;;;;;2.73;2.20;;;19.90;48.00;;;;;;5030844;28;20451;-85
2023/03/19 11:19:22;;;;;;;2.83;2.50;;;20.10;45.70;;;;;;5058065;28;20475;-85
2023/03/19 11:22:08;;;;;;;4.60;2.70;;;20.10;46.70;;;;;;5036224;28;20459;-86
2023/03/19 11:24:38;;;;;;;5.30;3.17;;;20.40;47.10;;;;;;5046963;28;21192;-85
2023/03/19 11:27:06;;;;;;;3.13;2.37;;;20.60;45.40;;;;;;5052881;28;20566;-85
2023/03/19 11:29:40;;;;;;;6.03;2.40;;;20.50;45.60;;;;;;5064756;28;20439;-84
2023/03/19 11:32:21;;;;;;;3.00;2.53;;;20.80;45.10;;;;;;5061084;28;21080;-85
2023/03/19 11:34:52;;;;;;;3.13;2.20;;;21.00;45.80;;;;;;5028356;28;20486;-85
2023/03/19 11:37:29;;;;;;;2.50;2.30;;;21.10;44.70;;;;;;5070272;28;20502;-87
2023/03/19 11:40:05;;;;;;;3.30;2.37;;;20.70;44.80;;;;;;5029830;28;20472;-86
2023/03/19 11:42:52;;;;;;;2.70;2.33;;;20.70;45.70;;;;;;5057010;28;20444;-85
2023/03/19 11:45:30;;;;;;;4.80;2.10;;;20.90;44.40;;;;;;5071083;28;20986;-84
2023/03/19 11:48:11;;;;;;;2.10;1.90;;;21.40;45.50;;;;;;5061116;28;20448;-86
2023/03/19 11:50:45;;;;;;;7.63;2.60;;;21.80;43.90;;;;;;5027439;28;20437;-85
2023/03/19 11:53:21;;;;;;;2.67;2.00;;;21.60;42.50;;;;;;5039338;28;20452;-85
2023/03/19 11:55:56;;;;;;;2.33;2.13;;;21.80;44.40;;;;;;5071636;28;20475;-86
2023/03/19 11:58:48;;;;;;;3.23;2.70;;;22.30;42.00;;;;;;5041723;28;20897;-86
2023/03/19 12:01:31;;;;;;;2.87;2.63;;;22.50;41.00;;;;;;5051672;28;20457;-86
2023/03/19 12:04:31;;;;;;;2.27;2.07;;;22.10;41.10;;;;;;5038918;28;20452;-85
2023/03/19 12:07:08;;;;;;;3.27;2.00;;;22.20;42.90;;;;;;5026621;28;20789;-83
2023/03/19 12:09:43;;;;;;;2.40;1.90;;;22.50;41.70;;;;;;5037893;28;20444;-85
2023/03/19 12:12:18;;;;;;;2.07;1.67;;;22.90;41.50;;;;;;5057528;28;20474;-84
2023/03/19 12:15:01;;;;;;;1.60;1.50;;;23.20;39.10;;;;;;5060828;28;20483;-85
2023/03/19 12:17:57;;;;;;;2.00;1.80;;;23.30;36.60;;;;;;5028789;28;20504;-85
2023/03/19 12:20:44;;;;;;;3.10;2.13;;;23.10;36.90;;;;;;5061581;28;20880;-85
2023/03/19 12:23:22;;;;;;;3.27;1.87;;;22.90;37.50;;;;;;5033461;28;20458;-84
2023/03/19 12:26:03;;;;;;;3.10;2.07;;;22.60;38.20;;;;;;5039733;28;20487;-85
2023/03/19 12:28:32;;;;;;;1.53;1.43;;;22.60;38.50;;;;;;5056208;28;20587;-85
2023/03/19 12:31:33;;;;;;;1.80;1.70;;;22.70;37.70;;;;;;5042115;28;20447;-85
2023/03/19 12:34:18;;;;;;;1.90;1.63;;;22.70;36.80;;;;;;5045254;28;20529;-85
2023/03/19 12:36:50;;;;;;;2.30;1.83;;;22.60;36.20;;;;;;5037689;28;20448;-84
2023/03/19 12:39:22;;;;;;;2.10;1.80;;;22.10;37.30;;;;;;5021583;28;20449;-84
2023/03/19 12:41:52;;;;;;;1.40;1.30;;;21.80;39.00;;;;;;5035552;28;20465;-85
2023/03/19 12:44:23;;;;;;;2.10;1.50;;;21.60;39.10;;;;;;5055029;28;20908;-87
2023/03/19 12:46:55;;;;;;;1.43;1.27;;;21.40;38.90;;;;;;5055784;28;20445;-86
2023/03/19 12:49:29;;;;;;;3.70;1.77;;;21.60;39.60;;;;;;5039572;28;21358;-86
2023/03/19 12:52:02;;;;;;;1.77;1.57;;;21.70;38.20;;;;;;5039493;28;21431;-86
2023/03/19 12:54:34;;;;;;;4.30;1.83;;;21.70;37.70;;;;;;5058661;28;20464;-86
2023/03/19 12:57:07;;;;;;;2.30;2.10;;;21.50;37.90;;;;;;5053066;28;20444;-88
2023/03/19 12:59:39;;;;;;;1.80;1.60;;;21.50;37.60;;;;;;5030304;28;20484;-86
2023/03/19 13:02:15;;;;;;;2.90;1.90;;;21.80;38.70;;;;;;5022111;28;20452;-88